createdAt,value
2018-10-21T00:00:04.293Z,1038.57138443
2018-10-21T00:00:16.689Z,1038.57138443
2018-10-21T00:00:29.228Z,1038.57138443
2018-10-21T00:00:41.647Z,1038.57138443
2018-10-21T00:00:54.047Z,1038.57138443
2018-10-21T00:01:06.455Z,1038.50365666
2018-10-21T00:01:18.890Z,1038.50365666
2018-10-21T00:01:31.368Z,1038.50365666
2018-10-21T00:01:43.885Z,1038.50365666
2018-10-21T00:01:56.266Z,1038.50365666
2018-10-21T00:02:08.814Z,1038.60524831
2018-10-21T00:02:22.059Z,1038.60524831
2018-10-21T00:02:35.547Z,1038.60524831
2018-10-21T00:02:47.949Z,1038.60524831
2018-10-21T00:03:00.851Z,1038.50365666
2018-10-21T00:03:14.268Z,1038.50365666
2018-10-21T00:03:27.120Z,1038.50365666
2018-10-21T00:03:39.515Z,1038.50365666
2018-10-21T00:03:51.921Z,1038.50365666
2018-10-21T00:04:04.432Z,1038.53752055
2018-10-21T00:04:16.897Z,1038.53752055
2018-10-21T00:04:29.291Z,1038.53752055
2018-10-21T00:04:41.692Z,1038.53752055
2018-10-21T00:04:54.073Z,1038.53752055
2018-10-21T00:05:06.505Z,1038.53752055
2018-10-21T00:05:18.902Z,1038.53752055
2018-10-21T00:05:31.305Z,1038.53752055
2018-10-21T00:05:43.687Z,1038.53752055
2018-10-21T00:05:56.067Z,1038.53752055
2018-10-21T00:06:08.498Z,1038.53752055
2018-10-21T00:06:21.031Z,1038.53752055
2018-10-21T00:06:33.413Z,1038.53752055
2018-10-21T00:06:45.815Z,1038.53752055
2018-10-21T00:06:58.228Z,1038.53752055
2018-10-21T00:07:10.633Z,1038.50365666
2018-10-21T00:07:23.054Z,1038.50365666
2018-10-21T00:07:35.617Z,1038.50365666
2018-10-21T00:07:48.008Z,1038.50365666
2018-10-21T00:08:00.386Z,1038.50365666
2018-10-21T00:08:12.902Z,1038.50365666
2018-10-21T00:08:25.302Z,1038.50365666
2018-10-21T00:08:37.690Z,1038.50365666
2018-10-21T00:08:50.060Z,1038.50365666
2018-10-21T00:09:02.936Z,1038.53752055
2018-10-21T00:09:16.380Z,1038.53752055
2018-10-21T00:09:28.992Z,1038.53752055
2018-10-21T00:09:41.405Z,1038.53752055
2018-10-21T00:09:53.811Z,1038.53752055
2018-10-21T00:10:06.203Z,1038.63911219
2018-10-21T00:10:18.617Z,1038.63911219
2018-10-21T00:10:31.008Z,1038.63911219
2018-10-21T00:10:43.448Z,1038.63911219
2018-10-21T00:10:55.855Z,1038.63911219
2018-10-21T00:11:08.385Z,1038.57138443
2018-10-21T00:11:20.778Z,1038.57138443
2018-10-21T00:11:33.158Z,1038.57138443
2018-10-21T00:11:45.547Z,1038.57138443
2018-10-21T00:11:57.949Z,1038.57138443
2018-10-21T00:12:10.417Z,1038.57138443
2018-10-21T00:12:22.797Z,1038.57138443
2018-10-21T00:12:35.355Z,1038.57138443
2018-10-21T00:12:47.742Z,1038.57138443
2018-10-21T00:13:00.127Z,1038.63911219
2018-10-21T00:13:12.690Z,1038.63911219
2018-10-21T00:13:25.075Z,1038.63911219
2018-10-21T00:13:37.480Z,1038.63911219
2018-10-21T00:13:49.861Z,1038.63911219
2018-10-21T00:14:02.264Z,1038.60524831
2018-10-21T00:14:14.914Z,1038.60524831
2018-10-21T00:14:27.349Z,1038.60524831
2018-10-21T00:14:39.731Z,1038.60524831
2018-10-21T00:14:52.125Z,1038.60524831
2018-10-21T00:15:05.363Z,1038.53752055
2018-10-21T00:15:19.251Z,1038.53752055
2018-10-21T00:15:34.127Z,1038.53752055
2018-10-21T00:15:48.993Z,1038.53752055
2018-10-21T00:16:01.377Z,1038.60524831
2018-10-21T00:16:13.811Z,1038.60524831
2018-10-21T00:16:26.233Z,1038.60524831
2018-10-21T00:16:38.610Z,1038.60524831
2018-10-21T00:16:51.012Z,1038.60524831
2018-10-21T00:17:03.389Z,1038.60524831
2018-10-21T00:17:15.786Z,1038.60524831
2018-10-21T00:17:28.217Z,1038.60524831
2018-10-21T00:17:40.753Z,1038.60524831
2018-10-21T00:17:53.149Z,1038.60524831
2018-10-21T00:18:05.541Z,1038.63911219
2018-10-21T00:18:17.946Z,1038.63911219
2018-10-21T00:18:30.326Z,1038.63911219
2018-10-21T00:18:42.731Z,1038.63911219
2018-10-21T00:18:55.119Z,1038.63911219
2018-10-21T00:19:07.522Z,1038.63911219
2018-10-21T00:19:19.948Z,1038.63911219
2018-10-21T00:19:32.351Z,1038.63911219
2018-10-21T00:19:44.735Z,1038.63911219
2018-10-21T00:19:57.143Z,1038.63911219
2018-10-21T00:20:09.584Z,1038.60524831
2018-10-21T00:20:22.168Z,1038.60524831
2018-10-21T00:20:34.630Z,1038.60524831
2018-10-21T00:20:47.082Z,1038.60524831
2018-10-21T00:20:59.723Z,1038.67297607
2018-10-21T00:21:13.338Z,1038.67297607
2018-10-21T00:21:26.368Z,1038.67297607
2018-10-21T00:21:38.767Z,1038.67297607
2018-10-21T00:21:51.319Z,1038.67297607
2018-10-21T00:22:03.701Z,1038.57138443
2018-10-21T00:22:16.182Z,1038.57138443
2018-10-21T00:22:28.566Z,1038.57138443
2018-10-21T00:22:41.011Z,1038.57138443
2018-10-21T00:22:53.494Z,1038.57138443
2018-10-21T00:23:05.969Z,1038.63911219
2018-10-21T00:23:18.434Z,1038.63911219
2018-10-21T00:23:30.877Z,1038.63911219
2018-10-21T00:23:43.349Z,1038.63911219
2018-10-21T00:23:55.781Z,1038.63911219
2018-10-21T00:24:08.152Z,1038.60524831
2018-10-21T00:24:20.599Z,1038.60524831
2018-10-21T00:24:33.227Z,1038.60524831
2018-10-21T00:24:45.686Z,1038.60524831
2018-10-21T00:24:58.160Z,1038.60524831
2018-10-21T00:25:10.579Z,1038.63911219
2018-10-21T00:25:22.986Z,1038.63911219
2018-10-21T00:25:35.428Z,1038.63911219
2018-10-21T00:25:48.032Z,1038.63911219
2018-10-21T00:26:00.505Z,1038.67297607
2018-10-21T00:26:12.894Z,1038.67297607
2018-10-21T00:26:25.268Z,1038.67297607
2018-10-21T00:26:37.717Z,1038.67297607
2018-10-21T00:26:50.159Z,1038.67297607
2018-10-21T00:27:03.272Z,1038.63911219
2018-10-21T00:27:16.976Z,1038.63911219
2018-10-21T00:27:29.508Z,1038.63911219
2018-10-21T00:27:41.894Z,1038.63911219
2018-10-21T00:27:54.265Z,1038.63911219
2018-10-21T00:28:06.648Z,1038.57138443
2018-10-21T00:28:19.028Z,1038.57138443
2018-10-21T00:28:31.395Z,1038.57138443
2018-10-21T00:28:43.817Z,1038.57138443
2018-10-21T00:28:56.265Z,1038.57138443
2018-10-21T00:29:08.700Z,1038.67297607
2018-10-21T00:29:21.072Z,1038.67297607
2018-10-21T00:29:33.518Z,1038.67297607
2018-10-21T00:29:45.966Z,1038.67297607
2018-10-21T00:29:58.353Z,1038.67297607
2018-10-21T00:30:10.742Z,1038.74070384
2018-10-21T00:30:23.121Z,1038.74070384
2018-10-21T00:30:35.857Z,1038.74070384
2018-10-21T00:30:48.292Z,1038.74070384
2018-10-21T00:31:00.681Z,1038.67297607
2018-10-21T00:31:13.067Z,1038.67297607
2018-10-21T00:31:25.441Z,1038.67297607
2018-10-21T00:31:37.807Z,1038.67297607
2018-10-21T00:31:50.200Z,1038.67297607
2018-10-21T00:32:02.678Z,1038.63911219
2018-10-21T00:32:15.082Z,1038.63911219
2018-10-21T00:32:27.458Z,1038.63911219
2018-10-21T00:32:39.873Z,1038.63911219
2018-10-21T00:32:52.249Z,1038.63911219
2018-10-21T00:33:05.283Z,1038.63911219
2018-10-21T00:33:18.891Z,1038.63911219
2018-10-21T00:33:31.304Z,1038.63911219
2018-10-21T00:33:43.900Z,1038.63911219
2018-10-21T00:33:56.378Z,1038.63911219
2018-10-21T00:34:08.901Z,1038.63911219
2018-10-21T00:34:21.618Z,1038.63911219
2018-10-21T00:34:34.140Z,1038.63911219
2018-10-21T00:34:46.609Z,1038.63911219
2018-10-21T00:34:58.975Z,1038.70683995
2018-10-21T00:35:11.353Z,1038.70683995
2018-10-21T00:35:23.737Z,1038.70683995
2018-10-21T00:35:36.131Z,1038.70683995
2018-10-21T00:35:48.501Z,1038.70683995
2018-10-21T00:36:00.908Z,1038.63911219
2018-10-21T00:36:13.281Z,1038.63911219
2018-10-21T00:36:25.705Z,1038.63911219
2018-10-21T00:36:38.194Z,1038.63911219
2018-10-21T00:36:50.644Z,1038.63911219
2018-10-21T00:37:03.012Z,1038.60524831
2018-10-21T00:37:15.488Z,1038.60524831
2018-10-21T00:37:27.967Z,1038.60524831
2018-10-21T00:37:40.418Z,1038.60524831
2018-10-21T00:37:52.881Z,1038.60524831
2018-10-21T00:38:05.379Z,1038.67297607
2018-10-21T00:38:17.830Z,1038.67297607
2018-10-21T00:38:30.283Z,1038.67297607
2018-10-21T00:38:42.736Z,1038.67297607
2018-10-21T00:38:55.175Z,1038.67297607
2018-10-21T00:39:08.445Z,1038.60524831
2018-10-21T00:39:22.053Z,1038.60524831
2018-10-21T00:39:34.613Z,1038.60524831
2018-10-21T00:39:47.044Z,1038.60524831
2018-10-21T00:39:59.529Z,1038.60524831
2018-10-21T00:40:12.013Z,1038.60524831
2018-10-21T00:40:24.394Z,1038.60524831
2018-10-21T00:40:37.008Z,1038.60524831
2018-10-21T00:40:49.385Z,1038.60524831
2018-10-21T00:41:01.786Z,1038.67297607
2018-10-21T00:41:14.313Z,1038.67297607
2018-10-21T00:41:26.751Z,1038.67297607
2018-10-21T00:41:39.116Z,1038.67297607
2018-10-21T00:41:51.501Z,1038.67297607
2018-10-21T00:42:03.875Z,1038.60524831
2018-10-21T00:42:16.307Z,1038.60524831
2018-10-21T00:42:28.732Z,1038.60524831
2018-10-21T00:42:41.102Z,1038.60524831
2018-10-21T00:42:53.609Z,1038.60524831
2018-10-21T00:43:06.008Z,1038.67297607
2018-10-21T00:43:18.481Z,1038.67297607
2018-10-21T00:43:30.946Z,1038.67297607
2018-10-21T00:43:43.415Z,1038.67297607
2018-10-21T00:43:55.871Z,1038.67297607
2018-10-21T00:44:08.359Z,1038.67297607
2018-10-21T00:44:20.811Z,1038.67297607
2018-10-21T00:44:33.267Z,1038.67297607
2018-10-21T00:44:45.713Z,1038.67297607
2018-10-21T00:44:58.272Z,1038.67297607
2018-10-21T00:45:11.414Z,1038.63911219
2018-10-21T00:45:24.457Z,1038.63911219
2018-10-21T00:45:36.848Z,1038.63911219
2018-10-21T00:45:49.234Z,1038.63911219
2018-10-21T00:46:01.603Z,1038.63911219
2018-10-21T00:46:14.021Z,1038.63911219
2018-10-21T00:46:26.425Z,1038.63911219
2018-10-21T00:46:38.808Z,1038.63911219
2018-10-21T00:46:51.354Z,1038.63911219
2018-10-21T00:47:03.743Z,1038.53752055
2018-10-21T00:47:16.184Z,1038.53752055
2018-10-21T00:47:28.739Z,1038.53752055
2018-10-21T00:47:41.219Z,1038.53752055
2018-10-21T00:47:53.758Z,1038.53752055
2018-10-21T00:48:06.149Z,1038.50365666
2018-10-21T00:48:18.554Z,1038.50365666
2018-10-21T00:48:31.130Z,1038.50365666
2018-10-21T00:48:43.571Z,1038.50365666
2018-10-21T00:48:56.047Z,1038.50365666
2018-10-21T00:49:08.668Z,1038.63911219
2018-10-21T00:49:21.146Z,1038.63911219
2018-10-21T00:49:33.601Z,1038.63911219
2018-10-21T00:49:46.116Z,1038.63911219
2018-10-21T00:49:58.536Z,1038.63911219
2018-10-21T00:50:10.959Z,1038.60524831
2018-10-21T00:50:23.389Z,1038.60524831
2018-10-21T00:50:35.877Z,1038.60524831
2018-10-21T00:50:48.306Z,1038.60524831
2018-10-21T00:51:01.039Z,1038.60524831
2018-10-21T00:51:14.417Z,1038.60524831
2018-10-21T00:51:27.186Z,1038.60524831
2018-10-21T00:51:39.571Z,1038.60524831
2018-10-21T00:51:51.945Z,1038.60524831
2018-10-21T00:52:04.467Z,1038.60524831
2018-10-21T00:52:16.835Z,1038.60524831
2018-10-21T00:52:29.264Z,1038.60524831
2018-10-21T00:52:41.713Z,1038.60524831
2018-10-21T00:52:54.178Z,1038.60524831
2018-10-21T00:53:06.694Z,1038.67297607
2018-10-21T00:53:19.077Z,1038.67297607
2018-10-21T00:53:31.455Z,1038.67297607
2018-10-21T00:53:43.894Z,1038.67297607
2018-10-21T00:53:56.499Z,1038.67297607
2018-10-21T00:54:09.018Z,1038.50365666
2018-10-21T00:54:21.405Z,1038.50365666
2018-10-21T00:54:33.775Z,1038.50365666
2018-10-21T00:54:46.153Z,1038.50365666
2018-10-21T00:54:58.599Z,1038.50365666
2018-10-21T00:55:11.276Z,1038.53752055
2018-10-21T00:55:23.745Z,1038.53752055
2018-10-21T00:55:36.193Z,1038.53752055
2018-10-21T00:55:48.581Z,1038.53752055
2018-10-21T00:56:01.042Z,1038.57138443
2018-10-21T00:56:13.514Z,1038.57138443
2018-10-21T00:56:25.894Z,1038.57138443
2018-10-21T00:56:38.420Z,1038.57138443
2018-10-21T00:56:50.926Z,1038.57138443
2018-10-21T00:57:03.956Z,1038.60524831
2018-10-21T00:57:17.949Z,1038.60524831
2018-10-21T00:57:30.562Z,1038.60524831
2018-10-21T00:57:43.028Z,1038.60524831
2018-10-21T00:57:55.589Z,1038.60524831
2018-10-21T00:58:08.063Z,1038.57138443
2018-10-21T00:58:20.513Z,1038.57138443
2018-10-21T00:58:32.979Z,1038.57138443
2018-10-21T00:58:45.346Z,1038.57138443
2018-10-21T00:58:57.768Z,1038.57138443
2018-10-21T00:59:10.262Z,1038.46979278
2018-10-21T00:59:22.723Z,1038.46979278
2018-10-21T00:59:35.091Z,1038.46979278
2018-10-21T00:59:47.490Z,1038.46979278
2018-10-21T00:59:59.865Z,1038.46979278
2018-10-21T01:00:12.236Z,1038.50365666
2018-10-21T01:00:24.650Z,1038.50365666
2018-10-21T01:00:37.187Z,1038.50365666
2018-10-21T01:00:49.599Z,1038.50365666
2018-10-21T01:01:02.009Z,1038.53752055
2018-10-21T01:01:14.451Z,1038.53752055
2018-10-21T01:01:26.863Z,1038.53752055
2018-10-21T01:01:39.282Z,1038.53752055
2018-10-21T01:01:51.741Z,1038.53752055
2018-10-21T01:02:04.176Z,1038.60524831
2018-10-21T01:02:16.562Z,1038.60524831
2018-10-21T01:02:29.040Z,1038.60524831
2018-10-21T01:02:41.544Z,1038.60524831
2018-10-21T01:02:54.116Z,1038.60524831
2018-10-21T01:03:07.303Z,1038.60524831
2018-10-21T01:03:20.745Z,1038.60524831
2018-10-21T01:03:33.139Z,1038.60524831
2018-10-21T01:03:45.572Z,1038.60524831
2018-10-21T01:03:58.007Z,1038.60524831
2018-10-21T01:04:11.391Z,1038.57138443
2018-10-21T01:04:24.514Z,1038.57138443
2018-10-21T01:04:36.890Z,1038.57138443
2018-10-21T01:04:49.373Z,1038.57138443
2018-10-21T01:05:01.766Z,1038.53752055
2018-10-21T01:05:14.181Z,1038.53752055
2018-10-21T01:05:26.582Z,1038.53752055
2018-10-21T01:05:38.983Z,1038.53752055
2018-10-21T01:05:51.374Z,1038.53752055
2018-10-21T01:06:03.762Z,1038.57138443
2018-10-21T01:06:16.224Z,1038.57138443
2018-10-21T01:06:28.635Z,1038.57138443
2018-10-21T01:06:41.025Z,1038.57138443
2018-10-21T01:06:53.448Z,1038.57138443
2018-10-21T01:07:05.846Z,1038.60524831
2018-10-21T01:07:18.513Z,1038.60524831
2018-10-21T01:07:30.892Z,1038.60524831
2018-10-21T01:07:43.291Z,1038.60524831
2018-10-21T01:07:55.699Z,1038.60524831
2018-10-21T01:08:08.083Z,1038.63911219
2018-10-21T01:08:20.469Z,1038.63911219
2018-10-21T01:08:32.947Z,1038.63911219
2018-10-21T01:08:45.763Z,1038.63911219
2018-10-21T01:08:58.402Z,1038.63911219
2018-10-21T01:09:11.997Z,1038.74070384
2018-10-21T01:09:25.444Z,1038.74070384
2018-10-21T01:09:37.839Z,1038.74070384
2018-10-21T01:09:50.234Z,1038.74070384
2018-10-21T01:10:02.643Z,1038.60524831
2018-10-21T01:10:15.100Z,1038.60524831
2018-10-21T01:10:27.516Z,1038.60524831
2018-10-21T01:10:39.997Z,1038.60524831
2018-10-21T01:10:52.390Z,1038.60524831
2018-10-21T01:11:04.773Z,1038.67297607
2018-10-21T01:11:17.287Z,1038.67297607
2018-10-21T01:11:29.655Z,1038.67297607
2018-10-21T01:11:42.026Z,1038.67297607
2018-10-21T01:11:54.408Z,1038.67297607
2018-10-21T01:12:06.819Z,1038.70683995
2018-10-21T01:12:19.243Z,1038.70683995
2018-10-21T01:12:31.801Z,1038.70683995
2018-10-21T01:12:44.207Z,1038.70683995
2018-10-21T01:12:56.616Z,1038.70683995
2018-10-21T01:13:09.174Z,1038.63911219
2018-10-21T01:13:21.563Z,1038.63911219
2018-10-21T01:13:33.985Z,1038.63911219
2018-10-21T01:13:46.375Z,1038.63911219
2018-10-21T01:13:58.791Z,1038.77456772
2018-10-21T01:14:11.177Z,1038.77456772
2018-10-21T01:14:23.584Z,1038.77456772
2018-10-21T01:14:35.984Z,1038.77456772
2018-10-21T01:14:48.388Z,1038.77456772
2018-10-21T01:15:01.123Z,1038.8084316
2018-10-21T01:15:14.992Z,1038.8084316
2018-10-21T01:15:28.035Z,1038.8084316
2018-10-21T01:15:40.443Z,1038.8084316
2018-10-21T01:15:52.818Z,1038.8084316
2018-10-21T01:16:05.204Z,1038.77456772
2018-10-21T01:16:17.579Z,1038.77456772
2018-10-21T01:16:29.969Z,1038.77456772
2018-10-21T01:16:42.391Z,1038.77456772
2018-10-21T01:16:54.776Z,1038.77456772
2018-10-21T01:17:07.154Z,1038.84229548
2018-10-21T01:17:19.595Z,1038.84229548
2018-10-21T01:17:32.044Z,1038.84229548
2018-10-21T01:17:44.543Z,1038.84229548
2018-10-21T01:17:56.921Z,1038.84229548
2018-10-21T01:18:09.300Z,1038.77456772
2018-10-21T01:18:21.713Z,1038.77456772
2018-10-21T01:18:34.097Z,1038.77456772
2018-10-21T01:18:46.487Z,1038.77456772
2018-10-21T01:18:58.908Z,1038.77456772
2018-10-21T01:19:11.326Z,1038.77456772
2018-10-21T01:19:23.862Z,1038.77456772
2018-10-21T01:19:36.252Z,1038.77456772
2018-10-21T01:19:48.629Z,1038.77456772
2018-10-21T01:20:01.150Z,1038.8084316
2018-10-21T01:20:13.528Z,1038.8084316
2018-10-21T01:20:25.998Z,1038.8084316
2018-10-21T01:20:38.437Z,1038.8084316
2018-10-21T01:20:50.821Z,1038.8084316
2018-10-21T01:21:03.625Z,1038.70683995
2018-10-21T01:21:17.288Z,1038.70683995
2018-10-21T01:21:29.882Z,1038.70683995
2018-10-21T01:21:42.308Z,1038.70683995
2018-10-21T01:21:54.836Z,1038.70683995
2018-10-21T01:22:07.232Z,1038.74070384
2018-10-21T01:22:19.703Z,1038.74070384
2018-10-21T01:22:32.273Z,1038.74070384
2018-10-21T01:22:44.678Z,1038.74070384
2018-10-21T01:22:57.075Z,1038.74070384
2018-10-21T01:23:09.449Z,1038.8084316
2018-10-21T01:23:21.846Z,1038.8084316
2018-10-21T01:23:34.254Z,1038.8084316
2018-10-21T01:23:46.654Z,1038.8084316
2018-10-21T01:23:59.088Z,1038.77456772
2018-10-21T01:24:11.465Z,1038.77456772
2018-10-21T01:24:23.861Z,1038.77456772
2018-10-21T01:24:36.349Z,1038.77456772
2018-10-21T01:24:48.738Z,1038.77456772
2018-10-21T01:25:01.141Z,1038.77456772
2018-10-21T01:25:13.530Z,1038.77456772
2018-10-21T01:25:25.944Z,1038.77456772
2018-10-21T01:25:38.416Z,1038.77456772
2018-10-21T01:25:50.994Z,1038.77456772
2018-10-21T01:26:03.364Z,1038.74070384
2018-10-21T01:26:15.792Z,1038.74070384
2018-10-21T01:26:28.168Z,1038.74070384
2018-10-21T01:26:40.538Z,1038.74070384
2018-10-21T01:26:52.913Z,1038.74070384
2018-10-21T01:27:05.946Z,1038.74070384
2018-10-21T01:27:19.825Z,1038.74070384
2018-10-21T01:27:32.395Z,1038.74070384
2018-10-21T01:27:44.860Z,1038.74070384
2018-10-21T01:27:57.324Z,1038.74070384
2018-10-21T01:28:09.829Z,1038.70683995
2018-10-21T01:28:22.307Z,1038.70683995
2018-10-21T01:28:34.714Z,1038.70683995
2018-10-21T01:28:47.095Z,1038.70683995
2018-10-21T01:28:59.503Z,1038.67297607
2018-10-21T01:29:11.913Z,1038.67297607
2018-10-21T01:29:24.288Z,1038.67297607
2018-10-21T01:29:36.677Z,1038.67297607
2018-10-21T01:29:49.077Z,1038.67297607
2018-10-21T01:30:01.535Z,1038.70683995
2018-10-21T01:30:13.996Z,1038.70683995
2018-10-21T01:30:26.452Z,1038.70683995
2018-10-21T01:30:38.866Z,1038.70683995
2018-10-21T01:30:51.322Z,1038.70683995
2018-10-21T01:31:03.780Z,1038.63911219
2018-10-21T01:31:16.225Z,1038.63911219
2018-10-21T01:31:28.831Z,1038.63911219
2018-10-21T01:31:41.267Z,1038.63911219
2018-10-21T01:31:53.633Z,1038.63911219
2018-10-21T01:32:06.033Z,1038.67297607
2018-10-21T01:32:18.419Z,1038.67297607
2018-10-21T01:32:30.862Z,1038.67297607
2018-10-21T01:32:43.277Z,1038.67297607
2018-10-21T01:32:55.779Z,1038.67297607
2018-10-21T01:33:08.965Z,1038.70683995
2018-10-21T01:33:22.418Z,1038.70683995
2018-10-21T01:33:34.831Z,1038.70683995
2018-10-21T01:33:47.259Z,1038.70683995
2018-10-21T01:33:59.661Z,1038.60524831
2018-10-21T01:34:12.061Z,1038.60524831
2018-10-21T01:34:24.497Z,1038.60524831
2018-10-21T01:34:37.018Z,1038.60524831
2018-10-21T01:34:49.408Z,1038.60524831
2018-10-21T01:35:01.803Z,1038.70683995
2018-10-21T01:35:14.211Z,1038.70683995
2018-10-21T01:35:26.622Z,1038.70683995
2018-10-21T01:35:39.069Z,1038.70683995
2018-10-21T01:35:51.464Z,1038.70683995
2018-10-21T01:36:03.878Z,1038.67297607
2018-10-21T01:36:17.848Z,1038.67297607
2018-10-21T01:36:34.803Z,1038.67297607
2018-10-21T01:36:49.342Z,1038.67297607
2018-10-21T01:37:03.256Z,1038.60524831
2018-10-21T01:37:16.905Z,1038.60524831
2018-10-21T01:37:30.369Z,1038.60524831
2018-10-21T01:37:43.152Z,1038.60524831
2018-10-21T01:37:56.752Z,1038.60524831
2018-10-21T01:38:10.310Z,1038.63911219
2018-10-21T01:38:23.795Z,1038.63911219
2018-10-21T01:38:36.513Z,1038.63911219
2018-10-21T01:38:48.885Z,1038.63911219
2018-10-21T01:39:01.661Z,1038.67297607
2018-10-21T01:39:15.258Z,1038.67297607
2018-10-21T01:39:28.088Z,1038.67297607
2018-10-21T01:39:40.476Z,1038.67297607
2018-10-21T01:39:52.942Z,1038.67297607
2018-10-21T01:40:05.347Z,1038.60524831
2018-10-21T01:40:17.844Z,1038.60524831
2018-10-21T01:40:30.244Z,1038.60524831
2018-10-21T01:40:42.657Z,1038.60524831
2018-10-21T01:40:55.177Z,1038.60524831
2018-10-21T01:41:07.618Z,1038.70683995
2018-10-21T01:41:20.003Z,1038.70683995
2018-10-21T01:41:32.404Z,1038.70683995
2018-10-21T01:41:44.916Z,1038.70683995
2018-10-21T01:41:57.312Z,1038.70683995
2018-10-21T01:42:09.718Z,1038.63911219
2018-10-21T01:42:22.107Z,1038.63911219
2018-10-21T01:42:34.504Z,1038.63911219
2018-10-21T01:42:46.869Z,1038.63911219
2018-10-21T01:42:59.257Z,1038.53752055
2018-10-21T01:43:11.818Z,1038.53752055
2018-10-21T01:43:24.283Z,1038.53752055
2018-10-21T01:43:36.686Z,1038.53752055
2018-10-21T01:43:49.081Z,1038.53752055
2018-10-21T01:44:01.454Z,1038.57138443
2018-10-21T01:44:13.843Z,1038.57138443
2018-10-21T01:44:26.240Z,1038.57138443
2018-10-21T01:44:38.611Z,1038.57138443
2018-10-21T01:44:50.996Z,1038.57138443
2018-10-21T01:45:03.966Z,1038.57138443
2018-10-21T01:45:17.789Z,1038.57138443
2018-10-21T01:45:30.224Z,1038.57138443
2018-10-21T01:45:42.621Z,1038.57138443
2018-10-21T01:45:55.016Z,1038.57138443
2018-10-21T01:46:07.461Z,1038.50365666
2018-10-21T01:46:19.856Z,1038.50365666
2018-10-21T01:46:32.231Z,1038.50365666
2018-10-21T01:46:44.786Z,1038.50365666
2018-10-21T01:46:57.158Z,1038.50365666
2018-10-21T01:47:09.652Z,1038.50365666
2018-10-21T01:47:22.174Z,1038.50365666
2018-10-21T01:47:35.396Z,1038.50365666
2018-10-21T01:47:47.786Z,1038.50365666
2018-10-21T01:48:00.167Z,1038.46979278
2018-10-21T01:48:12.914Z,1038.46979278
2018-10-21T01:48:25.309Z,1038.46979278
2018-10-21T01:48:37.711Z,1038.46979278
2018-10-21T01:48:50.127Z,1038.46979278
2018-10-21T01:49:02.598Z,1038.50365666
2018-10-21T01:49:15.139Z,1038.50365666
2018-10-21T01:49:27.582Z,1038.50365666
2018-10-21T01:49:40.043Z,1038.50365666
2018-10-21T01:49:52.480Z,1038.50365666
2018-10-21T01:50:04.883Z,1038.50365666
2018-10-21T01:50:17.330Z,1038.50365666
2018-10-21T01:50:29.747Z,1038.50365666
2018-10-21T01:50:42.155Z,1038.50365666
2018-10-21T01:50:54.570Z,1038.50365666
2018-10-21T01:51:08.037Z,1038.46979278
2018-10-21T01:51:22.043Z,1038.46979278
2018-10-21T01:51:34.415Z,1038.46979278
2018-10-21T01:51:46.785Z,1038.46979278
2018-10-21T01:51:59.249Z,1038.50365666
2018-10-21T01:52:11.646Z,1038.50365666
2018-10-21T01:52:24.300Z,1038.50365666
2018-10-21T01:52:37.073Z,1038.50365666
2018-10-21T01:52:49.458Z,1038.50365666
2018-10-21T01:53:01.972Z,1038.4359289
2018-10-21T01:53:14.368Z,1038.4359289
2018-10-21T01:53:26.775Z,1038.4359289
2018-10-21T01:53:39.165Z,1038.4359289
2018-10-21T01:53:51.560Z,1038.4359289
2018-10-21T01:54:03.935Z,1038.40206502
2018-10-21T01:54:16.493Z,1038.40206502
2018-10-21T01:54:28.980Z,1038.40206502
2018-10-21T01:54:41.356Z,1038.40206502
2018-10-21T01:54:53.724Z,1038.40206502
2018-10-21T01:55:06.125Z,1038.4359289
2018-10-21T01:55:18.496Z,1038.4359289
2018-10-21T01:55:30.882Z,1038.4359289
2018-10-21T01:55:43.264Z,1038.4359289
2018-10-21T01:55:55.689Z,1038.4359289
2018-10-21T01:56:08.081Z,1038.40206502
2018-10-21T01:56:20.464Z,1038.40206502
2018-10-21T01:56:32.867Z,1038.40206502
2018-10-21T01:56:45.259Z,1038.40206502
2018-10-21T01:56:57.823Z,1038.40206502
2018-10-21T01:57:11.287Z,1038.46979278
2018-10-21T01:57:24.650Z,1038.46979278
2018-10-21T01:57:37.083Z,1038.46979278
2018-10-21T01:57:49.663Z,1038.46979278
2018-10-21T01:58:02.052Z,1038.40206502
2018-10-21T01:58:14.444Z,1038.40206502
2018-10-21T01:58:26.837Z,1038.40206502
2018-10-21T01:58:39.347Z,1038.40206502
2018-10-21T01:58:51.774Z,1038.40206502
2018-10-21T01:59:04.180Z,1038.36820114
2018-10-21T01:59:16.671Z,1038.36820114
2018-10-21T01:59:29.050Z,1038.36820114
2018-10-21T01:59:41.439Z,1038.36820114
2018-10-21T01:59:53.821Z,1038.36820114
2018-10-21T02:00:06.202Z,1038.40206502
2018-10-21T02:00:18.612Z,1038.40206502
2018-10-21T02:00:31.158Z,1038.40206502
2018-10-21T02:00:43.686Z,1038.40206502
2018-10-21T02:00:56.114Z,1038.40206502
2018-10-21T02:01:08.530Z,1038.33433726
2018-10-21T02:01:20.963Z,1038.33433726
2018-10-21T02:01:33.400Z,1038.33433726
2018-10-21T02:01:45.877Z,1038.33433726
2018-10-21T02:01:58.287Z,1038.33433726
2018-10-21T02:02:10.688Z,1038.36820114
2018-10-21T02:02:23.090Z,1038.36820114
2018-10-21T02:02:35.479Z,1038.36820114
2018-10-21T02:02:47.862Z,1038.36820114
2018-10-21T02:03:00.626Z,1038.4359289
2018-10-21T02:03:14.356Z,1038.4359289
2018-10-21T02:03:27.691Z,1038.4359289
2018-10-21T02:03:40.069Z,1038.4359289
2018-10-21T02:03:52.464Z,1038.4359289
2018-10-21T02:04:04.894Z,1038.30047337
2018-10-21T02:04:17.376Z,1038.30047337
2018-10-21T02:04:29.770Z,1038.30047337
2018-10-21T02:04:42.166Z,1038.30047337
2018-10-21T02:04:54.536Z,1038.30047337
2018-10-21T02:05:06.937Z,1038.4359289
2018-10-21T02:05:19.438Z,1038.4359289
2018-10-21T02:05:31.824Z,1038.4359289
2018-10-21T02:05:44.239Z,1038.4359289
2018-10-21T02:05:56.625Z,1038.4359289
2018-10-21T02:06:09.021Z,1038.4359289
2018-10-21T02:06:21.588Z,1038.4359289
2018-10-21T02:06:33.988Z,1038.4359289
2018-10-21T02:06:46.382Z,1038.4359289
2018-10-21T02:06:58.784Z,1038.4359289
2018-10-21T02:07:11.177Z,1038.50365666
2018-10-21T02:07:23.571Z,1038.50365666
2018-10-21T02:07:35.971Z,1038.50365666
2018-10-21T02:07:48.373Z,1038.50365666
2018-10-21T02:08:00.814Z,1038.40206502
2018-10-21T02:08:13.231Z,1038.40206502
2018-10-21T02:08:25.623Z,1038.40206502